Time;durP1;ratioP1;P1;durP2;ratioP2;P2;SDS_P1;SDS_P2;PMS_P1;PMS_P2;Temp;Humidity;BMP_temperature;BMP_pressure;BME280_temperature;BME280_humidity;BME280_pressure;Samples;Min_cycle;Max_cycle;Signal;HPM_P1;HPM_P2
2021/06/28 00:01:21;;;;;;;5.30;3.47;;;;;;;;;;5013213;28;20209;-54
2021/06/28 00:03:46;;;;;;;5.25;3.60;;;;;;;;;;5030075;28;20229;-53
2021/06/28 00:06:13;;;;;;;6.63;3.50;;;;;;;;;;5028081;28;20609;-54
2021/06/28 00:08:39;;;;;;;4.00;3.50;;;;;;;;;;5030914;28;20250;-54
2021/06/28 00:11:06;;;;;;;4.88;3.30;;;;;;;;;;5026500;28;20225;-54
2021/06/28 00:13:32;;;;;;;4.60;3.78;;;;;;;;;;5026466;28;20840;-54
2021/06/28 00:15:58;;;;;;;3.60;3.30;;;;;;;;;;5024783;28;20194;-53
2021/06/28 00:18:23;;;;;;;4.43;3.17;;;;;;;;;;5023507;28;20240;-53
2021/06/28 00:20:49;;;;;;;7.53;3.53;;;;;;;;;;5028695;28;20830;-53
2021/06/28 00:23:14;;;;;;;4.70;3.20;;;;;;;;;;5011690;28;20186;-53
2021/06/28 00:25:40;;;;;;;4.20;3.50;;;;;;;;;;5030784;28;20190;-52
2021/06/28 00:28:05;;;;;;;3.80;3.47;;;;;;;;;;5030886;28;20195;-54
2021/06/28 00:30:36;;;;;;;4.43;3.50;;;;;;;;;;5028511;28;20203;-54
2021/06/28 00:33:02;;;;;;;4.20;3.80;;;;;;;;;;5012549;28;20186;-53
2021/06/28 00:35:27;;;;;;;8.50;3.78;;;;;;;;;;5011393;28;20206;-54
2021/06/28 00:37:53;;;;;;;3.92;3.63;;;;;;;;;;5030213;28;20573;-54
2021/06/28 00:40:19;;;;;;;4.63;3.40;;;;;;;;;;5027480;28;20218;-54
2021/06/28 00:42:45;;;;;;;5.65;4.18;;;;;;;;;;5029031;28;20240;-54
2021/06/28 00:45:34;;;;;;;7.35;4.00;;;;;;;;;;5025615;28;20673;-55
2021/06/28 00:48:20;;;;;;;5.82;4.55;;;;;;;;;;5021312;28;20641;-52
2021/06/28 00:50:52;;;;;;;7.28;4.65;;;;;;;;;;5023893;28;20297;-54
2021/06/28 00:53:21;;;;;;;7.55;5.07;;;;;;;;;;5025504;28;20190;-51
2021/06/28 00:55:47;;;;;;;4.47;4.18;;;;;;;;;;5027358;28;20246;-53
2021/06/28 00:58:13;;;;;;;8.55;4.60;;;;;;;;;;5025665;28;20183;-53
2021/06/28 01:00:40;;;;;;;5.15;4.40;;;;;;;;;;5007692;28;20218;-53
2021/06/28 01:03:05;;;;;;;6.53;4.45;;;;;;;;;;5031376;28;21751;-53
2021/06/28 01:05:33;;;;;;;4.97;4.45;;;;;;;;;;5033001;28;20194;-51
2021/06/28 01:08:00;;;;;;;4.30;3.92;;;;;;;;;;5011869;28;20213;-53
2021/06/28 01:10:26;;;;;;;7.57;4.13;;;;;;;;;;5021754;28;20211;-53
2021/06/28 01:12:51;;;;;;;5.43;4.15;;;;;;;;;;5024249;28;20199;-53
2021/06/28 01:15:18;;;;;;;8.60;4.03;;;;;;;;;;5021779;28;20195;-53
2021/06/28 01:17:44;;;;;;;4.20;3.78;;;;;;;;;;5020677;28;20195;-53
2021/06/28 01:20:10;;;;;;;4.60;4.05;;;;;;;;;;5024875;28;20286;-52
2021/06/28 01:22:37;;;;;;;6.40;4.50;;;;;;;;;;5027299;28;20195;-53
2021/06/28 01:25:04;;;;;;;5.50;4.00;;;;;;;;;;5027512;28;20194;-53
2021/06/28 01:27:30;;;;;;;5.93;4.10;;;;;;;;;;5025657;28;20189;-52
2021/06/28 01:29:57;;;;;;;6.20;4.30;;;;;;;;;;5029668;28;20225;-53
2021/06/28 01:32:23;;;;;;;6.22;4.72;;;;;;;;;;5024219;28;20185;-53
2021/06/28 01:34:48;;;;;;;7.68;4.10;;;;;;;;;;5020282;28;20190;-53
2021/06/28 01:37:26;;;;;;;7.43;3.78;;;;;;;;;;5007368;28;20200;-53
2021/06/28 01:39:54;;;;;;;9.15;4.05;;;;;;;;;;5024291;28;20252;-53
2021/06/28 01:42:20;;;;;;;4.93;4.40;;;;;;;;;;5025461;28;20182;-52
2021/06/28 01:44:45;;;;;;;4.25;3.83;;;;;;;;;;5027440;28;20205;-52
2021/06/28 01:47:11;;;;;;;5.03;3.63;;;;;;;;;;5021405;28;20190;-52
2021/06/28 01:49:36;;;;;;;5.35;3.70;;;;;;;;;;5009883;28;20186;-53
2021/06/28 01:52:02;;;;;;;4.82;4.43;;;;;;;;;;5024933;28;20826;-52
2021/06/28 01:54:28;;;;;;;5.63;3.92;;;;;;;;;;5022761;28;20195;-53
2021/06/28 01:56:54;;;;;;;8.65;4.22;;;;;;;;;;5032389;28;20282;-52
2021/06/28 01:59:29;;;;;;;5.97;4.30;;;;;;;;;;5030558;28;20288;-52
2021/06/28 02:01:54;;;;;;;7.75;4.20;;;;;;;;;;5020976;28;20193;-54
2021/06/28 02:04:19;;;;;;;4.43;4.00;;;;;;;;;;5024490;28;20270;-52
2021/06/28 02:06:45;;;;;;;5.35;4.35;;;;;;;;;;5020689;28;20186;-53
2021/06/28 02:09:10;;;;;;;8.45;5.03;;;;;;;;;;5010020;28;20183;-53
2021/06/28 02:11:36;;;;;;;7.53;4.15;;;;;;;;;;5022371;28;20815;-53
2021/06/28 02:14:01;;;;;;;5.05;4.65;;;;;;;;;;5017017;28;20188;-53
2021/06/28 02:16:26;;;;;;;5.75;4.43;;;;;;;;;;5020576;28;20650;-52
2021/06/28 02:18:51;;;;;;;5.05;4.28;;;;;;;;;;5007359;28;20219;-53
2021/06/28 02:21:17;;;;;;;5.78;4.43;;;;;;;;;;5026533;28;20203;-53
2021/06/28 02:23:42;;;;;;;4.72;4.25;;;;;;;;;;5032514;28;20265;-53
2021/06/28 02:26:12;;;;;;;6.20;4.43;;;;;;;;;;5025323;28;20818;-53
2021/06/28 02:28:40;;;;;;;6.03;4.45;;;;;;;;;;5022048;28;20197;-52
2021/06/28 02:31:08;;;;;;;5.20;4.70;;;;;;;;;;5026192;28;20211;-53
2021/06/28 02:33:35;;;;;;;5.55;5.00;;;;;;;;;;5022281;28;20277;-52
2021/06/28 02:36:00;;;;;;;5.65;5.15;;;;;;;;;;5018439;28;20260;-52
2021/06/28 02:38:26;;;;;;;6.77;5.27;;;;;;;;;;5032462;28;20195;-53
2021/06/28 02:40:53;;;;;;;6.57;5.10;;;;;;;;;;5026367;28;20248;-53
2021/06/28 02:43:19;;;;;;;7.10;5.73;;;;;;;;;;5026436;28;20191;-52
2021/06/28 02:45:45;;;;;;;7.17;5.03;;;;;;;;;;5018828;28;20241;-52
2021/06/28 02:48:10;;;;;;;6.53;5.53;;;;;;;;;;5022763;28;20565;-52
2021/06/28 02:50:36;;;;;;;6.23;5.20;;;;;;;;;;5020464;28;20190;-53
2021/06/28 02:53:02;;;;;;;7.70;5.83;;;;;;;;;;5009051;28;20790;-54
2021/06/28 02:55:28;;;;;;;6.20;5.53;;;;;;;;;;5024189;28;20205;-54
2021/06/28 02:57:53;;;;;;;5.87;5.27;;;;;;;;;;5027561;28;20248;-53
2021/06/28 03:00:19;;;;;;;5.30;4.80;;;;;;;;;;5012926;28;20206;-53
2021/06/28 03:02:44;;;;;;;7.43;6.00;;;;;;;;;;5027398;28;20187;-52
2021/06/28 03:05:11;;;;;;;6.90;5.87;;;;;;;;;;5024717;28;20198;-53
2021/06/28 03:07:37;;;;;;;7.97;6.63;;;;;;;;;;5023750;28;20186;-53
2021/06/28 03:10:05;;;;;;;6.63;5.90;;;;;;;;;;5025025;28;20214;-53
2021/06/28 03:12:30;;;;;;;8.47;6.20;;;;;;;;;;5025998;28;20830;-53
2021/06/28 03:14:56;;;;;;;8.80;5.70;;;;;;;;;;5012098;28;20277;-53
2021/06/28 03:17:21;;;;;;;6.47;5.43;;;;;;;;;;5028704;28;20668;-53
2021/06/28 03:19:46;;;;;;;8.70;5.70;;;;;;;;;;5020244;28;20238;-53
2021/06/28 03:22:12;;;;;;;7.70;5.72;;;;;;;;;;5022871;28;20194;-53
2021/06/28 03:24:37;;;;;;;6.07;5.47;;;;;;;;;;5027268;28;20231;-53
2021/06/28 03:27:03;;;;;;;5.82;5.32;;;;;;;;;;5024583;28;20206;-53
2021/06/28 03:29:28;;;;;;;6.05;5.40;;;;;;;;;;5022431;28;20187;-53
2021/06/28 03:31:53;;;;;;;7.22;5.95;;;;;;;;;;5013558;28;20657;-54
2021/06/28 03:34:19;;;;;;;5.95;5.45;;;;;;;;;;5016963;28;20186;-53
2021/06/28 03:36:44;;;;;;;7.28;5.40;;;;;;;;;;5008279;28;20290;-53
2021/06/28 03:39:10;;;;;;;7.60;5.72;;;;;;;;;;5023198;28;20218;-53
2021/06/28 03:41:35;;;;;;;9.40;5.78;;;;;;;;;;5027409;28;20289;-54
2021/06/28 03:44:01;;;;;;;6.68;6.00;;;;;;;;;;5021733;28;20260;-52
2021/06/28 03:46:27;;;;;;;8.25;6.15;;;;;;;;;;5022389;28;20203;-54
2021/06/28 03:48:52;;;;;;;9.02;6.10;;;;;;;;;;5030240;28;20229;-54
2021/06/28 03:51:18;;;;;;;8.38;5.00;;;;;;;;;;5028715;28;21037;-54
2021/06/28 03:53:43;;;;;;;5.90;5.20;;;;;;;;;;5026164;28;20193;-54
2021/06/28 03:56:08;;;;;;;5.70;5.05;;;;;;;;;;5024530;28;20183;-55
2021/06/28 03:58:36;;;;;;;5.90;5.40;;;;;;;;;;5022789;28;20186;-54
2021/06/28 04:01:01;;;;;;;6.25;5.65;;;;;;;;;;5010444;28;20234;-54
2021/06/28 04:03:28;;;;;;;5.82;5.18;;;;;;;;;;5030300;28;20215;-53
2021/06/28 04:05:54;;;;;;;7.53;6.00;;;;;;;;;;5025315;28;20186;-53
2021/06/28 04:08:20;;;;;;;7.43;5.45;;;;;;;;;;5027294;28;20206;-54
2021/06/28 04:10:45;;;;;;;6.78;5.50;;;;;;;;;;5034480;28;20249;-54
2021/06/28 04:13:10;;;;;;;5.43;4.95;;;;;;;;;;5024673;28;20195;-53
2021/06/28 04:15:35;;;;;;;6.53;5.80;;;;;;;;;;5027077;28;20718;-54
2021/06/28 04:18:02;;;;;;;6.65;5.55;;;;;;;;;;5020339;28;20190;-54
2021/06/28 04:20:27;;;;;;;5.82;5.32;;;;;;;;;;5022347;28;20214;-54
2021/06/28 04:22:53;;;;;;;5.70;5.18;;;;;;;;;;5031183;28;20197;-54
2021/06/28 04:25:21;;;;;;;5.80;5.05;;;;;;;;;;5029114;28;20197;-54
2021/06/28 04:27:47;;;;;;;5.80;5.20;;;;;;;;;;5021655;28;20252;-54
2021/06/28 04:30:15;;;;;;;7.43;4.97;;;;;;;;;;5020477;28;20250;-54
2021/06/28 04:32:40;;;;;;;7.35;5.35;;;;;;;;;;5012224;28;20256;-53
2021/06/28 04:35:09;;;;;;;7.43;5.85;;;;;;;;;;5009819;28;20198;-52
2021/06/28 04:37:35;;;;;;;8.13;5.60;;;;;;;;;;5025512;28;20199;-52
2021/06/28 04:40:02;;;;;;;10.15;5.53;;;;;;;;;;5022268;28;20302;-54
2021/06/28 04:42:27;;;;;;;9.40;5.93;;;;;;;;;;5006328;28;20187;-54
2021/06/28 04:44:53;;;;;;;6.35;5.53;;;;;;;;;;5021407;28;20256;-53
2021/06/28 04:47:18;;;;;;;6.97;4.80;;;;;;;;;;5019336;28;20190;-54
2021/06/28 04:49:43;;;;;;;6.35;5.18;;;;;;;;;;5016795;28;20209;-54
2021/06/28 04:52:09;;;;;;;4.82;4.30;;;;;;;;;;5026666;28;20191;-54
2021/06/28 04:54:34;;;;;;;5.70;4.70;;;;;;;;;;5031231;28;20195;-53
2021/06/28 04:56:59;;;;;;;5.57;5.05;;;;;;;;;;5026876;28;20257;-53
2021/06/28 04:59:24;;;;;;;9.13;4.95;;;;;;;;;;5025818;28;20217;-53
2021/06/28 05:01:50;;;;;;;9.50;5.55;;;;;;;;;;5023187;28;20253;-53
2021/06/28 05:04:15;;;;;;;8.88;5.45;;;;;;;;;;5021374;28;20225;-52
2021/06/28 05:06:40;;;;;;;6.43;5.82;;;;;;;;;;5025794;28;20838;-53
2021/06/28 05:09:08;;;;;;;9.82;6.22;;;;;;;;;;5024291;28;20674;-52
2021/06/28 05:11:34;;;;;;;5.75;5.25;;;;;;;;;;5029409;28;20852;-53
2021/06/28 05:13:59;;;;;;;6.63;5.65;;;;;;;;;;5028179;28;20203;-53
2021/06/28 05:16:24;;;;;;;5.80;5.30;;;;;;;;;;5026407;28;20274;-52
2021/06/28 05:18:49;;;;;;;5.68;4.90;;;;;;;;;;5026452;28;20179;-53
2021/06/28 05:21:15;;;;;;;6.05;5.45;;;;;;;;;;5023343;28;20302;-54
2021/06/28 05:23:40;;;;;;;5.32;4.82;;;;;;;;;;5026061;28;20186;-54
2021/06/28 05:26:05;;;;;;;5.03;4.40;;;;;;;;;;5025192;28;20775;-54
2021/06/28 05:28:30;;;;;;;5.93;5.32;;;;;;;;;;5025453;28;20186;-54
2021/06/28 05:30:57;;;;;;;7.05;5.65;;;;;;;;;;5011092;28;20732;-54
2021/06/28 05:33:22;;;;;;;7.75;4.80;;;;;;;;;;5027096;28;20222;-53
2021/06/28 05:35:47;;;;;;;5.53;5.00;;;;;;;;;;5026164;28;20241;-52
2021/06/28 05:38:12;;;;;;;5.35;4.85;;;;;;;;;;5024166;28;20209;-54
2021/06/28 05:40:38;;;;;;;5.82;5.20;;;;;;;;;;5024198;28;20218;-53
2021/06/28 05:43:03;;;;;;;5.75;5.25;;;;;;;;;;5023766;28;20244;-53
2021/06/28 05:45:29;;;;;;;5.25;4.75;;;;;;;;;;5023998;28;21430;-53
2021/06/28 05:47:54;;;;;;;5.03;4.47;;;;;;;;;;5024885;28;20186;-54
2021/06/28 05:50:20;;;;;;;8.55;4.63;;;;;;;;;;5026150;28;20210;-53
2021/06/28 05:52:46;;;;;;;5.30;4.70;;;;;;;;;;5009021;28;20197;-53
2021/06/28 05:55:12;;;;;;;5.30;4.80;;;;;;;;;;5021635;28;20701;-53
2021/06/28 05:57:38;;;;;;;4.88;4.47;;;;;;;;;;5026745;28;20248;-54
2021/06/28 06:00:07;;;;;;;5.53;4.40;;;;;;;;;;5028606;28;20218;-54
2021/06/28 06:02:32;;;;;;;8.05;5.25;;;;;;;;;;5024830;28;20185;-55
2021/06/28 06:04:58;;;;;;;5.18;4.68;;;;;;;;;;5030822;28;20195;-53
2021/06/28 06:07:23;;;;;;;4.90;4.50;;;;;;;;;;5021027;28;20213;-53
2021/06/28 06:09:48;;;;;;;7.45;4.47;;;;;;;;;;5021850;28;20197;-54
2021/06/28 06:12:14;;;;;;;5.00;4.50;;;;;;;;;;5027637;28;20186;-53
2021/06/28 06:14:39;;;;;;;5.20;4.72;;;;;;;;;;5013707;28;20696;-53
2021/06/28 06:17:04;;;;;;;5.82;5.32;;;;;;;;;;5023016;28;20225;-52
2021/06/28 06:19:30;;;;;;;4.93;4.50;;;;;;;;;;5032729;28;20198;-54
2021/06/28 06:21:55;;;;;;;4.60;4.20;;;;;;;;;;5034457;28;20186;-53
2021/06/28 06:24:24;;;;;;;5.00;4.60;;;;;;;;;;5007937;28;20226;-51
2021/06/28 06:26:49;;;;;;;5.05;4.60;;;;;;;;;;5011561;28;20190;-53
2021/06/28 06:29:16;;;;;;;4.90;4.40;;;;;;;;;;5025378;28;20206;-52
2021/06/28 06:31:41;;;;;;;4.93;4.43;;;;;;;;;;5021276;28;20211;-53
2021/06/28 06:34:07;;;;;;;4.88;4.45;;;;;;;;;;5025333;28;20255;-51
2021/06/28 06:36:32;;;;;;;4.88;4.47;;;;;;;;;;5030309;28;20173;-53
2021/06/28 06:38:57;;;;;;;6.10;4.50;;;;;;;;;;5027945;28;20219;-52
2021/06/28 06:41:23;;;;;;;5.22;4.63;;;;;;;;;;5023299;28;20202;-52
2021/06/28 06:43:48;;;;;;;4.93;3.95;;;;;;;;;;5010116;28;20240;-54
2021/06/28 06:46:14;;;;;;;5.22;4.50;;;;;;;;;;5023114;28;20194;-53
2021/06/28 06:48:39;;;;;;;4.70;4.28;;;;;;;;;;5022486;28;20238;-52
2021/06/28 06:51:05;;;;;;;4.53;4.13;;;;;;;;;;5013014;28;20724;-53
2021/06/28 06:53:30;;;;;;;5.45;4.25;;;;;;;;;;5025013;28;20416;-53
2021/06/28 06:55:55;;;;;;;4.68;3.65;;;;;;;;;;5026704;28;20253;-53
2021/06/28 06:58:20;;;;;;;4.63;4.22;;;;;;;;;;5010889;28;20695;-53
2021/06/28 07:00:46;;;;;;;4.93;3.67;;;;;;;;;;5014034;28;20217;-53
2021/06/28 07:03:11;;;;;;;3.75;3.45;;;;;;;;;;5027107;28;20270;-54
2021/06/28 07:05:37;;;;;;;3.88;3.58;;;;;;;;;;5022760;28;20186;-53
2021/06/28 07:08:03;;;;;;;4.20;3.80;;;;;;;;;;5030784;28;20270;-52
2021/06/28 07:10:29;;;;;;;4.85;4.20;;;;;;;;;;5022643;28;20202;-53
2021/06/28 07:12:54;;;;;;;4.63;3.88;;;;;;;;;;5018144;28;20651;-54
2021/06/28 07:15:21;;;;;;;4.60;4.20;;;;;;;;;;5030270;28;20236;-53
2021/06/28 07:17:48;;;;;;;6.68;3.97;;;;;;;;;;5028972;28;20550;-53
2021/06/28 07:20:17;;;;;;;4.53;4.13;;;;;;;;;;5032935;28;20292;-53
2021/06/28 07:22:42;;;;;;;4.40;4.00;;;;;;;;;;5031533;28;20736;-53
2021/06/28 07:25:09;;;;;;;5.45;4.53;;;;;;;;;;5026163;28;20190;-53
2021/06/28 07:27:35;;;;;;;4.60;3.42;;;;;;;;;;5013818;28;20342;-53
2021/06/28 07:30:02;;;;;;;4.63;4.20;;;;;;;;;;5030582;28;20748;-54
2021/06/28 07:32:28;;;;;;;3.85;3.47;;;;;;;;;;5031345;28;20558;-54
2021/06/28 07:34:53;;;;;;;3.53;3.28;;;;;;;;;;5029150;28;20273;-54
2021/06/28 07:37:18;;;;;;;4.35;3.63;;;;;;;;;;5028462;28;20194;-55
2021/06/28 07:39:43;;;;;;;4.18;3.78;;;;;;;;;;5024405;28;20301;-53
2021/06/28 07:42:09;;;;;;;4.00;3.70;;;;;;;;;;5021844;28;20213;-54
2021/06/28 07:44:34;;;;;;;3.83;3.53;;;;;;;;;;5024631;28;20214;-52
2021/06/28 07:47:00;;;;;;;4.20;3.80;;;;;;;;;;5026966;28;20183;-54
2021/06/28 07:49:25;;;;;;;6.50;4.28;;;;;;;;;;5027681;28;20179;-54
2021/06/28 07:51:50;;;;;;;4.43;4.03;;;;;;;;;;5029104;28;20329;-54
2021/06/28 07:54:17;;;;;;;4.93;4.43;;;;;;;;;;5029383;28;20191;-53
2021/06/28 07:56:43;;;;;;;4.88;4.47;;;;;;;;;;5025922;28;20206;-53
2021/06/28 07:59:09;;;;;;;5.10;4.57;;;;;;;;;;5024097;28;20678;-53
2021/06/28 08:01:34;;;;;;;4.40;4.00;;;;;;;;;;5010296;28;20820;-54
2021/06/28 08:03:59;;;;;;;4.72;4.32;;;;;;;;;;5011651;28;20228;-55
2021/06/28 08:06:25;;;;;;;4.75;4.35;;;;;;;;;;5028591;28;20307;-54
2021/06/28 08:08:51;;;;;;;4.28;3.88;;;;;;;;;;5019293;28;20186;-52
2021/06/28 08:11:18;;;;;;;8.57;3.67;;;;;;;;;;5020057;28;20238;-53
2021/06/28 08:13:46;;;;;;;4.70;4.28;;;;;;;;;;5019741;28;20193;-52
2021/06/28 08:16:16;;;;;;;4.53;4.13;;;;;;;;;;5028082;28;20625;-53
2021/06/28 08:18:43;;;;;;;5.95;4.32;;;;;;;;;;5027693;28;20177;-53
2021/06/28 08:21:09;;;;;;;4.80;4.35;;;;;;;;;;5027277;28;20268;-53
2021/06/28 08:23:35;;;;;;;6.03;5.43;;;;;;;;;;5014980;28;20195;-53
2021/06/28 08:26:00;;;;;;;5.63;5.13;;;;;;;;;;5006316;28;20183;-53
2021/06/28 08:28:25;;;;;;;6.07;4.80;;;;;;;;;;5017868;28;20191;-53
2021/06/28 08:30:51;;;;;;;5.50;5.05;;;;;;;;;;5029234;28;20217;-52
2021/06/28 08:33:16;;;;;;;5.40;4.90;;;;;;;;;;5026887;28;20277;-54
2021/06/28 08:35:42;;;;;;;5.93;5.43;;;;;;;;;;5028838;28;20202;-53
2021/06/28 08:38:08;;;;;;;6.82;5.07;;;;;;;;;;5014277;28;20214;-54
2021/06/28 08:40:35;;;;;;;5.63;4.32;;;;;;;;;;5027375;28;20214;-54
2021/06/28 08:43:01;;;;;;;5.32;4.82;;;;;;;;;;5030524;28;20671;-54
2021/06/28 08:45:28;;;;;;;5.43;4.93;;;;;;;;;;5026454;28;20207;-52
2021/06/28 08:47:54;;;;;;;9.02;5.15;;;;;;;;;;5022495;28;20222;-54
2021/06/28 08:50:19;;;;;;;5.95;5.45;;;;;;;;;;5025483;28;20294;-54
2021/06/28 08:52:45;;;;;;;5.20;4.80;;;;;;;;;;5025398;28;20297;-54
2021/06/28 08:55:11;;;;;;;7.13;5.05;;;;;;;;;;5029210;28;20194;-54
2021/06/28 08:57:37;;;;;;;5.03;4.63;;;;;;;;;;5026940;28;20190;-53
2021/06/28 09:00:11;;;;;;;5.38;4.88;;;;;;;;;;5007694;28;20262;-55
2021/06/28 09:02:40;;;;;;;5.38;4.97;;;;;;;;;;5022570;28;20604;-54
2021/06/28 09:05:07;;;;;;;5.63;5.10;;;;;;;;;;5024550;28;20312;-55
2021/06/28 09:07:32;;;;;;;5.72;5.32;;;;;;;;;;5028546;28;20272;-54
2021/06/28 09:09:58;;;;;;;7.32;5.55;;;;;;;;;;5025698;28;20392;-54
2021/06/28 09:12:23;;;;;;;6.60;5.47;;;;;;;;;;5025339;28;20192;-55
2021/06/28 09:14:58;;;;;;;5.82;5.07;;;;;;;;;;5027219;28;20852;-55
2021/06/28 09:17:29;;;;;;;6.28;5.68;;;;;;;;;;5025014;28;20667;-55
2021/06/28 09:20:14;;;;;;;5.32;4.82;;;;;;;;;;5019862;28;20222;-54
2021/06/28 09:22:40;;;;;;;5.95;5.35;;;;;;;;;;5010681;28;20186;-54
2021/06/28 09:25:07;;;;;;;5.72;5.22;;;;;;;;;;5019742;28;20302;-55
2021/06/28 09:27:41;;;;;;;5.78;5.28;;;;;;;;;;5011388;28;20174;-54
2021/06/28 09:30:16;;;;;;;8.88;6.35;;;;;;;;;;5024556;28;20198;-54
2021/06/28 09:32:51;;;;;;;6.10;5.60;;;;;;;;;;5022704;28;20748;-54
2021/06/28 09:35:34;;;;;;;8.30;5.72;;;;;;;;;;5012080;28;20194;-55
2021/06/28 09:38:03;;;;;;;5.53;5.03;;;;;;;;;;5026731;28;20179;-54
2021/06/28 09:40:28;;;;;;;10.25;5.47;;;;;;;;;;5010093;28;20210;-53
2021/06/28 09:42:53;;;;;;;5.75;5.20;;;;;;;;;;5028739;28;20881;-54
2021/06/28 09:45:24;;;;;;;7.70;5.30;;;;;;;;;;5023475;28;20228;-55
2021/06/28 09:47:49;;;;;;;7.10;6.30;;;;;;;;;;5011101;28;20274;-54
2021/06/28 09:50:18;;;;;;;5.65;5.15;;;;;;;;;;5027405;28;20290;-55
2021/06/28 09:52:51;;;;;;;6.63;6.03;;;;;;;;;;5014628;28;20213;-54
2021/06/28 09:55:29;;;;;;;6.05;5.50;;;;;;;;;;5029533;28;20222;-54
2021/06/28 09:58:11;;;;;;;6.22;5.63;;;;;;;;;;5025665;28;20193;-55
2021/06/28 10:00:47;;;;;;;5.47;5.07;;;;;;;;;;5028822;28;20214;-54
2021/06/28 10:03:31;;;;;;;5.32;4.88;;;;;;;;;;5027463;28;20198;-54
2021/06/28 10:06:10;;;;;;;5.88;5.38;;;;;;;;;;5027884;28;20190;-54
2021/06/28 10:08:37;;;;;;;5.65;5.20;;;;;;;;;;5032969;28;20182;-55
2021/06/28 10:11:24;;;;;;;6.53;5.93;;;;;;;;;;5020716;28;20634;-55
2021/06/28 10:13:55;;;;;;;5.25;4.78;;;;;;;;;;5025702;28;20758;-55
2021/06/28 10:16:26;;;;;;;5.93;5.43;;;;;;;;;;5027843;28;20269;-54
2021/06/28 10:18:53;;;;;;;6.30;5.80;;;;;;;;;;5022340;28;20641;-54
2021/06/28 10:21:18;;;;;;;5.75;5.30;;;;;;;;;;5022671;28;20313;-54
2021/06/28 10:23:44;;;;;;;5.32;4.93;;;;;;;;;;5027227;28;20289;-55
2021/06/28 10:26:09;;;;;;;5.30;4.90;;;;;;;;;;5022580;28;20197;-54
2021/06/28 10:28:37;;;;;;;5.70;5.20;;;;;;;;;;5017012;28;20325;-55
2021/06/28 10:31:04;;;;;;;16.83;7.82;;;;;;;;;;5020463;28;20615;-54
2021/06/28 10:33:30;;;;;;;5.60;5.20;;;;;;;;;;5018023;28;20239;-54
2021/06/28 10:36:00;;;;;;;5.63;5.22;;;;;;;;;;5020747;28;20214;-54
2021/06/28 10:38:45;;;;;;;5.78;5.28;;;;;;;;;;5002374;28;20182;-53
2021/06/28 10:41:11;;;;;;;5.47;5.03;;;;;;;;;;5016425;28;20226;-54
2021/06/28 10:43:37;;;;;;;6.00;5.28;;;;;;;;;;5022249;28;20194;-54
2021/06/28 10:46:08;;;;;;;5.43;4.93;;;;;;;;;;5016465;28;20191;-53
2021/06/28 10:48:48;;;;;;;5.50;5.10;;;;;;;;;;5003313;28;20183;-54
2021/06/28 10:51:18;;;;;;;5.55;5.10;;;;;;;;;;5008567;28;20226;-54
2021/06/28 10:53:43;;;;;;;5.47;5.07;;;;;;;;;;5021261;28;20182;-53
2021/06/28 10:56:28;;;;;;;5.53;5.03;;;;;;;;;;5004157;28;20202;-54
2021/06/28 10:58:55;;;;;;;8.45;5.18;;;;;;;;;;5015064;28;20276;-55
2021/06/28 11:01:51;;;;;;;5.68;5.28;;;;;;;;;;5014684;28;20726;-54
2021/06/28 11:04:28;;;;;;;5.65;5.15;;;;;;;;;;5021263;28;20588;-53
2021/06/28 11:06:59;;;;;;;6.00;5.50;;;;;;;;;;5020149;28;20194;-54
2021/06/28 11:09:47;;;;;;;5.97;5.57;;;;;;;;;;5016653;28;20179;-54
2021/06/28 11:12:20;;;;;;;5.70;5.30;;;;;;;;;;5016336;28;20180;-54
2021/06/28 11:14:46;;;;;;;6.18;5.18;;;;;;;;;;5005163;28;20698;-56
2021/06/28 11:17:16;;;;;;;5.72;5.22;;;;;;;;;;5010495;28;20187;-54
2021/06/28 11:19:46;;;;;;;6.80;5.50;;;;;;;;;;5021148;28;20582;-55
2021/06/28 11:22:31;;;;;;;5.07;4.57;;;;;;;;;;5009827;28;20581;-53
2021/06/28 11:24:59;;;;;;;5.47;4.97;;;;;;;;;;5026605;28;20820;-54
2021/06/28 11:27:25;;;;;;;7.50;4.85;;;;;;;;;;5021368;28;20603;-54
2021/06/28 11:29:53;;;;;;;5.90;5.40;;;;;;;;;;5024854;28;20202;-54
2021/06/28 11:32:23;;;;;;;5.68;5.28;;;;;;;;;;5029728;28;20189;-54
2021/06/28 11:34:48;;;;;;;5.45;5.03;;;;;;;;;;5020961;28;20185;-54
2021/06/28 11:37:14;;;;;;;5.15;4.75;;;;;;;;;;5012188;28;20190;-54
2021/06/28 11:39:53;;;;;;;5.30;4.90;;;;;;;;;;5022943;28;20206;-54
2021/06/28 11:42:20;;;;;;;5.55;5.05;;;;;;;;;;5022559;28;20190;-54
2021/06/28 11:45:10;;;;;;;5.70;4.43;;;;;;;;;;5023472;28;20191;-54
2021/06/28 11:47:44;;;;;;;5.85;5.45;;;;;;;;;;5026282;28;20681;-54
2021/06/28 11:50:36;;;;;;;5.25;4.85;;;;;;;;;;5020804;28;20274;-54
2021/06/28 11:53:01;;;;;;;5.10;4.70;;;;;;;;;;5022166;28;20190;-54
2021/06/28 11:55:28;;;;;;;5.07;4.68;;;;;;;;;;5024634;28;20186;-54
2021/06/28 11:57:56;;;;;;;5.00;4.60;;;;;;;;;;5023964;28;20530;-54
2021/06/28 12:00:22;;;;;;;6.40;4.40;;;;;;;;;;5021081;28;20228;-54
2021/06/28 12:03:08;;;;;;;4.25;3.95;;;;;;;;;;5027270;28;20193;-54
2021/06/28 12:05:33;;;;;;;4.82;4.43;;;;;;;;;;5027362;28;20208;-54
2021/06/28 12:07:59;;;;;;;4.82;4.43;;;;;;;;;;5025515;28;20643;-54
2021/06/28 12:10:24;;;;;;;4.75;4.35;;;;;;;;;;5030315;28;20582;-54
2021/06/28 12:12:57;;;;;;;4.88;4.47;;;;;;;;;;5023853;28;20754;-53
2021/06/28 12:15:27;;;;;;;4.72;4.38;;;;;;;;;;5017223;28;20275;-54
2021/06/28 12:17:52;;;;;;;4.70;4.30;;;;;;;;;;5011623;28;20654;-53
2021/06/28 12:20:19;;;;;;;4.82;4.43;;;;;;;;;;5007958;28;20222;-53
2021/06/28 12:22:47;;;;;;;5.10;4.70;;;;;;;;;;5029332;28;20191;-53
2021/06/28 12:25:15;;;;;;;5.32;4.93;;;;;;;;;;5023269;28;20171;-54
2021/06/28 12:27:43;;;;;;;5.20;4.70;;;;;;;;;;5031210;28;20194;-54
2021/06/28 12:30:13;;;;;;;5.30;4.80;;;;;;;;;;5010415;28;20241;-53
2021/06/28 12:32:52;;;;;;;5.05;4.65;;;;;;;;;;5025238;28;20684;-54
2021/06/28 12:35:22;;;;;;;5.50;5.00;;;;;;;;;;5027290;28;20186;-53
2021/06/28 12:37:54;;;;;;;5.43;4.68;;;;;;;;;;5018839;28;20195;-53
2021/06/28 12:40:27;;;;;;;5.20;4.80;;;;;;;;;;5024221;28;21055;-53
2021/06/28 12:42:56;;;;;;;5.20;4.80;;;;;;;;;;5019926;28;20197;-52
2021/06/28 12:45:24;;;;;;;5.22;4.72;;;;;;;;;;5002709;28;20201;-54
2021/06/28 12:47:52;;;;;;;6.05;5.00;;;;;;;;;;5027453;28;20191;-55
2021/06/28 12:50:22;;;;;;;7.13;4.85;;;;;;;;;;5003451;28;20205;-54
2021/06/28 12:52:48;;;;;;;85.85;10.90;;;;;;;;;;5026157;28;20189;-54
2021/06/28 12:55:35;;;;;;;5.18;4.78;;;;;;;;;;5022455;28;20765;-54
2021/06/28 12:58:09;;;;;;;5.15;4.75;;;;;;;;;;5021206;28;20222;-53
2021/06/28 13:00:43;;;;;;;4.90;4.50;;;;;;;;;;5027376;28;20214;-53
2021/06/28 13:03:12;;;;;;;5.13;4.53;;;;;;;;;;5024294;28;20195;-53
2021/06/28 13:05:47;;;;;;;5.45;5.05;;;;;;;;;;5026931;28;20194;-53
2021/06/28 13:08:34;;;;;;;7.22;5.20;;;;;;;;;;5031515;28;20178;-54
2021/06/28 13:11:06;;;;;;;4.57;4.18;;;;;;;;;;5005544;28;20203;-54
2021/06/28 13:13:41;;;;;;;5.00;4.53;;;;;;;;;;5027716;28;20243;-53
2021/06/28 13:19:11;;;;;;;5.45;4.95;;;;;;;;;;5021937;28;20247;-53
2021/06/28 13:22:05;;;;;;;5.22;4.72;;;;;;;;;;5027009;28;20219;-54
2021/06/28 13:24:36;;;;;;;5.50;5.07;;;;;;;;;;5024126;28;20240;-54
2021/06/28 13:27:12;;;;;;;5.45;5.05;;;;;;;;;;5027159;28;20698;-53
2021/06/28 13:29:45;;;;;;;5.95;5.45;;;;;;;;;;5022870;28;20230;-53
2021/06/28 13:32:28;;;;;;;5.00;4.60;;;;;;;;;;5020395;28;20190;-54
2021/06/28 13:34:56;;;;;;;5.13;4.72;;;;;;;;;;5026705;28;20710;-53
2021/06/28 13:37:24;;;;;;;5.25;4.85;;;;;;;;;;5024022;28;20273;-54
2021/06/28 13:39:53;;;;;;;6.10;5.50;;;;;;;;;;5023120;28;20220;-54
2021/06/28 13:42:20;;;;;;;5.68;5.28;;;;;;;;;;5025221;28;20211;-53
2021/06/28 13:45:20;;;;;;;5.85;5.15;;;;;;;;;;5024932;28;20218;-53
2021/06/28 13:48:06;;;;;;;9.43;5.80;;;;;;;;;;5011873;28;20175;-53
2021/06/28 13:50:31;;;;;;;5.70;5.30;;;;;;;;;;5027309;28;20688;-54
2021/06/28 13:52:58;;;;;;;5.53;5.13;;;;;;;;;;5027278;28;20186;-54
2021/06/28 13:55:24;;;;;;;5.40;5.00;;;;;;;;;;5026754;28;20183;-53
2021/06/28 13:58:00;;;;;;;6.30;5.80;;;;;;;;;;5025811;28;20186;-54
2021/06/28 14:00:28;;;;;;;5.85;5.45;;;;;;;;;;5028056;28;20267;-54
2021/06/28 14:02:55;;;;;;;6.70;6.10;;;;;;;;;;5025295;28;20319;-53
2021/06/28 14:05:21;;;;;;;5.90;5.50;;;;;;;;;;5026566;28;20201;-56
2021/06/28 14:07:46;;;;;;;5.68;5.18;;;;;;;;;;5022337;28;20182;-56
2021/06/28 14:10:12;;;;;;;5.43;4.93;;;;;;;;;;5024067;28;20229;-55
2021/06/28 14:12:38;;;;;;;5.35;4.90;;;;;;;;;;5026545;28;20178;-55
2021/06/28 14:15:06;;;;;;;5.28;4.95;;;;;;;;;;5007850;28;20206;-54
2021/06/28 14:17:31;;;;;;;6.22;5.72;;;;;;;;;;5031026;28;20182;-54
2021/06/28 14:19:56;;;;;;;7.03;6.32;;;;;;;;;;5023327;28;20210;-54
2021/06/28 14:22:22;;;;;;;7.03;6.50;;;;;;;;;;5026369;28;20171;-54
2021/06/28 14:24:47;;;;;;;7.43;6.47;;;;;;;;;;5025212;28;20205;-53
2021/06/28 14:27:12;;;;;;;7.50;6.25;;;;;;;;;;5035544;28;20186;-53
2021/06/28 14:29:37;;;;;;;6.75;6.25;;;;;;;;;;5024535;28;20267;-54
2021/06/28 14:32:04;;;;;;;7.65;6.95;;;;;;;;;;5023901;28;20682;-54
2021/06/28 14:34:29;;;;;;;7.38;6.78;;;;;;;;;;5026061;28;20217;-54
2021/06/28 14:36:54;;;;;;;7.72;7.03;;;;;;;;;;5025475;28;20687;-54
2021/06/28 14:39:20;;;;;;;6.75;6.25;;;;;;;;;;5024804;28;20215;-54
2021/06/28 14:41:45;;;;;;;7.70;7.00;;;;;;;;;;5008846;28;20214;-54
2021/06/28 14:44:10;;;;;;;8.05;7.35;;;;;;;;;;5026994;28;20223;-54
2021/06/28 14:46:35;;;;;;;7.45;6.82;;;;;;;;;;5009285;28;20183;-54
2021/06/28 14:49:01;;;;;;;7.25;6.75;;;;;;;;;;5025752;28;20269;-54
2021/06/28 14:51:26;;;;;;;7.47;6.88;;;;;;;;;;5011708;28;20218;-54